Time;durP1;ratioP1;P1;durP2;ratioP2;P2;SDS_P1;SDS_P2;PMS_P1;PMS_P2;Temp;Humidity;BMP_temperature;BMP_pressure;BME280_temperature;BME280_humidity;BME280_pressure;Samples;Min_cycle;Max_cycle;Signal;HPM_P1;HPM_P2
2022/10/27 00:01:25;;;;;;;3.53;1.90;;;12.20;99.90;;;;;;5017919;28;20203;-81
2022/10/27 00:03:51;;;;;;;7.10;2.10;;;12.20;99.90;;;;;;5019425;28;20173;-81
2022/10/27 00:06:17;;;;;;;3.97;2.70;;;12.20;99.90;;;;;;5018185;28;20183;-81
2022/10/27 00:08:42;;;;;;;2.63;1.70;;;12.30;99.90;;;;;;5020113;28;20204;-82
2022/10/27 00:11:08;;;;;;;4.77;2.00;;;12.20;99.90;;;;;;5022447;28;20173;-81
2022/10/27 00:13:34;;;;;;;8.50;2.27;;;12.20;99.90;;;;;;5022797;28;20185;-81
2022/10/27 00:16:10;;;;;;;4.50;1.87;;;12.10;99.90;;;;;;5021895;28;20181;-81
2022/10/27 00:18:36;;;;;;;9.13;2.00;;;12.10;99.90;;;;;;5022723;28;20196;-80
2022/10/27 00:21:10;;;;;;;5.80;2.40;;;12.10;99.90;;;;;;5022218;28;20211;-80
2022/10/27 00:23:37;;;;;;;5.80;2.00;;;12.10;99.90;;;;;;5021685;28;20168;-81
2022/10/27 00:26:03;;;;;;;10.50;2.43;;;12.10;99.90;;;;;;5022020;28;20173;-80
2022/10/27 00:28:29;;;;;;;8.77;2.20;;;12.10;99.90;;;;;;5026042;28;20207;-80
2022/10/27 00:31:09;;;;;;;9.77;1.93;;;12.10;99.90;;;;;;5039150;28;20229;-80
2022/10/27 00:33:35;;;;;;;9.20;2.93;;;12.10;99.90;;;;;;5036800;28;20271;-81
2022/10/27 00:36:05;;;;;;;6.53;2.53;;;12.10;99.90;;;;;;5022516;28;20270;-81
2022/10/27 00:38:31;;;;;;;6.07;2.20;;;12.10;99.90;;;;;;5021207;28;20608;-81
2022/10/27 00:40:56;;;;;;;6.73;2.10;;;12.20;99.90;;;;;;5020977;28;20247;-81
2022/10/27 00:43:37;;;;;;;14.50;1.90;;;12.20;99.90;;;;;;5021465;28;20177;-81
2022/10/27 00:46:14;;;;;;;5.33;2.00;;;12.20;99.90;;;;;;5021022;28;20593;-81
2022/10/27 00:48:40;;;;;;;7.77;2.50;;;12.20;99.90;;;;;;5021650;28;20189;-80
2022/10/27 00:51:06;;;;;;;9.37;2.10;;;12.20;99.90;;;;;;5021657;28;20192;-81
2022/10/27 00:53:32;;;;;;;5.57;1.80;;;12.20;99.90;;;;;;5021278;28;20181;-81
2022/10/27 00:55:59;;;;;;;5.70;2.10;;;12.20;99.90;;;;;;5020827;28;20180;-80
2022/10/27 00:58:24;;;;;;;3.70;1.70;;;12.20;99.90;;;;;;5020530;28;20192;-81
2022/10/27 01:00:50;;;;;;;6.80;2.53;;;12.30;99.90;;;;;;5020424;28;20197;-80
2022/10/27 01:03:19;;;;;;;8.23;1.70;;;12.30;99.90;;;;;;5020813;28;20179;-81
2022/10/27 01:05:45;;;;;;;3.73;1.90;;;12.30;99.90;;;;;;5020568;28;20173;-81
2022/10/27 01:08:12;;;;;;;7.83;2.17;;;12.30;99.90;;;;;;5020064;28;20220;-79
2022/10/27 01:10:38;;;;;;;4.17;2.30;;;12.30;99.90;;;;;;5020438;28;20177;-81
2022/10/27 01:13:04;;;;;;;5.70;2.10;;;12.40;99.90;;;;;;5020947;28;20237;-81
2022/10/27 01:15:40;;;;;;;7.43;1.93;;;12.40;99.90;;;;;;5020854;28;20200;-81
2022/10/27 01:18:12;;;;;;;10.07;2.50;;;12.40;99.90;;;;;;5020641;28;20238;-81
2022/10/27 01:21:11;;;;;;;7.63;1.87;;;12.40;99.90;;;;;;5020144;28;20272;-81
2022/10/27 01:24:02;;;;;;;14.57;2.23;;;12.30;99.90;;;;;;5020271;28;20196;-81
2022/10/27 01:26:50;;;;;;;3.23;1.80;;;12.30;99.90;;;;;;5019294;28;20165;-81
2022/10/27 01:29:37;;;;;;;4.87;1.70;;;12.20;99.90;;;;;;5021344;28;20162;-81
2022/10/27 01:32:14;;;;;;;8.60;1.73;;;12.30;99.90;;;;;;5020754;28;20165;-81
2022/10/27 01:34:45;;;;;;;9.70;2.10;;;12.30;99.90;;;;;;5021173;28;20175;-81
2022/10/27 01:37:21;;;;;;;5.73;2.00;;;12.20;99.90;;;;;;5021625;28;20260;-81
2022/10/27 01:40:19;;;;;;;9.97;2.27;;;12.20;99.90;;;;;;5021282;28;20161;-81
2022/10/27 01:43:14;;;;;;;5.63;1.93;;;12.20;99.90;;;;;;5015892;28;20196;-81
2022/10/27 01:45:41;;;;;;;7.10;1.90;;;12.20;99.90;;;;;;5020964;28;20195;-82
2022/10/27 01:48:08;;;;;;;5.73;1.87;;;12.20;99.90;;;;;;5024409;28;20245;-81
2022/10/27 01:50:37;;;;;;;13.20;2.03;;;12.20;99.90;;;;;;5035003;28;20211;-80
2022/10/27 01:53:03;;;;;;;8.43;1.80;;;12.10;99.90;;;;;;5035199;28;20240;-81
2022/10/27 01:55:59;;;;;;;8.90;2.00;;;12.10;99.90;;;;;;5025025;28;20177;-80
2022/10/27 01:58:46;;;;;;;4.77;1.47;;;12.10;99.90;;;;;;5019205;28;20246;-80
2022/10/27 02:01:55;;;;;;;4.57;1.50;;;12.10;99.90;;;;;;5019317;28;20237;-80
2022/10/27 02:04:35;;;;;;;6.87;1.60;;;12.10;99.90;;;;;;5018798;28;20179;-81
2022/10/27 02:07:14;;;;;;;6.07;1.70;;;12.00;99.90;;;;;;5018594;28;20200;-81
2022/10/27 02:09:51;;;;;;;6.93;1.70;;;12.00;99.90;;;;;;5019367;28;20188;-80
2022/10/27 02:12:27;;;;;;;9.47;1.93;;;11.90;99.90;;;;;;5019303;28;20192;-81
2022/10/27 02:14:54;;;;;;;10.37;1.77;;;12.00;99.90;;;;;;5018872;28;20160;-80
2022/10/27 02:17:22;;;;;;;4.30;1.53;;;12.00;99.90;;;;;;5018522;28;20211;-81
2022/10/27 02:19:49;;;;;;;3.93;1.57;;;11.90;99.90;;;;;;5018198;28;20256;-81
2022/10/27 02:22:15;;;;;;;5.13;1.60;;;11.90;99.90;;;;;;5018739;28;20173;-81
2022/10/27 02:24:41;;;;;;;8.43;1.63;;;11.90;99.90;;;;;;5018626;28;20204;-80
2022/10/27 02:27:23;;;;;;;7.23;2.00;;;11.80;99.90;;;;;;5018084;28;20217;-80
2022/10/27 02:29:52;;;;;;;6.20;1.60;;;11.80;99.90;;;;;;5016628;28;20165;-81
2022/10/27 02:32:21;;;;;;;13.40;1.87;;;11.80;99.90;;;;;;5018121;28;20211;-81
2022/10/27 02:34:48;;;;;;;4.97;1.47;;;11.80;99.90;;;;;;5018376;28;20223;-81
2022/10/27 02:37:26;;;;;;;10.40;1.70;;;11.80;99.90;;;;;;5018020;28;20272;-80
2022/10/27 02:39:51;;;;;;;4.13;1.80;;;11.80;99.90;;;;;;5018023;28;20275;-81
2022/10/27 02:42:17;;;;;;;8.87;1.73;;;11.70;99.90;;;;;;5017951;28;20200;-81
2022/10/27 02:44:43;;;;;;;3.67;1.37;;;11.70;99.90;;;;;;5017896;28;20169;-81
2022/10/27 02:47:08;;;;;;;5.63;1.67;;;11.70;99.90;;;;;;5017825;28;20192;-81
2022/10/27 02:49:34;;;;;;;9.30;1.57;;;11.70;99.90;;;;;;5018556;28;20219;-81
2022/10/27 02:52:01;;;;;;;7.80;1.70;;;11.60;99.90;;;;;;5017808;28;20627;-78
2022/10/27 02:54:27;;;;;;;4.00;1.40;;;11.60;99.90;;;;;;5017658;28;20164;-80
2022/10/27 02:56:53;;;;;;;5.27;1.70;;;11.60;99.90;;;;;;5016544;28;20314;-80
2022/10/27 02:59:18;;;;;;;5.10;1.60;;;11.60;99.90;;;;;;5017968;28;20262;-81
2022/10/27 03:01:44;;;;;;;3.50;1.60;;;11.60;99.90;;;;;;5017609;28;20200;-81
2022/10/27 03:04:09;;;;;;;3.90;1.67;;;11.60;99.90;;;;;;5017632;28;20231;-80
2022/10/27 03:06:35;;;;;;;5.00;1.40;;;11.60;99.90;;;;;;5016282;28;20260;-80
2022/10/27 03:09:00;;;;;;;3.40;1.47;;;11.50;99.90;;;;;;5016490;28;20172;-81
2022/10/27 03:11:26;;;;;;;5.03;1.70;;;11.60;99.90;;;;;;5018111;28;20247;-80
2022/10/27 03:13:51;;;;;;;9.73;1.60;;;11.50;99.90;;;;;;5017964;28;20183;-81
2022/10/27 03:16:17;;;;;;;8.60;1.90;;;11.60;99.90;;;;;;5018056;28;20196;-80
2022/10/27 03:18:42;;;;;;;7.83;1.67;;;11.60;99.90;;;;;;5017255;28;20583;-81
2022/10/27 03:21:08;;;;;;;8.00;1.60;;;11.60;99.90;;;;;;5017141;28;20220;-81
2022/10/27 03:23:33;;;;;;;3.13;1.63;;;11.60;99.90;;;;;;5018492;28;20176;-81
2022/10/27 03:25:59;;;;;;;8.60;1.80;;;11.70;99.90;;;;;;5017333;28;20617;-80
2022/10/27 03:28:25;;;;;;;4.47;1.57;;;11.70;99.90;;;;;;5017236;28;20185;-81
2022/10/27 03:30:51;;;;;;;6.57;1.80;;;11.70;99.90;;;;;;5017357;28;20271;-80
2022/10/27 03:33:16;;;;;;;2.67;1.60;;;11.80;99.90;;;;;;5018266;28;20173;-80
2022/10/27 03:35:42;;;;;;;7.90;2.13;;;11.80;99.90;;;;;;5017464;28;20689;-80
2022/10/27 03:38:08;;;;;;;7.77;1.80;;;11.90;99.90;;;;;;5018306;28;20703;-81
2022/10/27 03:40:34;;;;;;;13.47;1.60;;;11.90;99.90;;;;;;5017108;28;20200;-80
2022/10/27 03:43:00;;;;;;;5.77;1.80;;;12.00;99.90;;;;;;5018351;28;20208;-80
2022/10/27 03:45:26;;;;;;;7.37;1.57;;;12.00;99.90;;;;;;5020829;28;20165;-81
2022/10/27 03:48:02;;;;;;;9.23;1.90;;;12.00;99.90;;;;;;5020935;28;20664;-81
2022/10/27 03:50:28;;;;;;;3.03;1.20;;;12.00;99.90;;;;;;5020944;28;20165;-81
2022/10/27 03:52:53;;;;;;;9.97;1.50;;;12.00;99.90;;;;;;5020635;28;20183;-81
2022/10/27 03:55:19;;;;;;;6.57;1.67;;;12.00;99.90;;;;;;5020232;28;20177;-81
2022/10/27 03:57:44;;;;;;;5.10;2.07;;;12.00;99.90;;;;;;5020144;28;20192;-80
2022/10/27 04:00:11;;;;;;;2.90;1.60;;;12.00;99.90;;;;;;5020825;28;20262;-81
2022/10/27 04:02:36;;;;;;;6.30;1.70;;;12.00;99.90;;;;;;5020791;28;20537;-79
2022/10/27 04:05:02;;;;;;;8.70;1.87;;;11.90;99.90;;;;;;5020603;28;20179;-80
2022/10/27 04:07:27;;;;;;;7.10;1.40;;;11.90;99.90;;;;;;5019806;28;20280;-81
2022/10/27 04:09:53;;;;;;;6.83;1.43;;;11.90;99.90;;;;;;5020459;28;20173;-80
2022/10/27 04:12:18;;;;;;;5.23;1.83;;;11.90;99.90;;;;;;5020731;28;20252;-81
2022/10/27 04:14:44;;;;;;;3.37;1.50;;;11.90;99.90;;;;;;5017586;28;20182;-80
2022/10/27 04:17:09;;;;;;;2.20;1.37;;;11.90;99.90;;;;;;5037952;28;20254;-81
2022/10/27 04:19:35;;;;;;;7.80;1.63;;;11.90;99.90;;;;;;5030733;28;20543;-79
2022/10/27 04:22:00;;;;;;;7.17;1.77;;;11.80;99.90;;;;;;5001101;28;20190;-80
2022/10/27 04:24:26;;;;;;;4.33;1.33;;;11.90;99.90;;;;;;4999840;28;20176;-80
2022/10/27 04:26:51;;;;;;;4.33;1.30;;;11.80;99.90;;;;;;5000860;28;20197;-81
2022/10/27 04:29:17;;;;;;;2.87;1.87;;;11.80;99.90;;;;;;5000581;28;20166;-80
2022/10/27 04:31:42;;;;;;;2.73;1.20;;;11.80;99.90;;;;;;5000557;28;20548;-80
2022/10/27 04:34:08;;;;;;;7.50;1.77;;;11.80;99.90;;;;;;5000034;28;20181;-80
2022/10/27 04:36:33;;;;;;;8.37;1.63;;;11.70;99.90;;;;;;4999416;28;20554;-80
2022/10/27 04:39:00;;;;;;;5.30;1.23;;;11.70;99.90;;;;;;4999198;28;20180;-80
2022/10/27 04:41:26;;;;;;;4.23;1.53;;;11.70;99.90;;;;;;4998960;28;20229;-79
2022/10/27 04:43:51;;;;;;;3.43;1.47;;;11.70;99.90;;;;;;4998860;28;20169;-79
2022/10/27 04:46:17;;;;;;;6.00;2.00;;;11.70;99.90;;;;;;4999430;28;20591;-80
2022/10/27 04:48:43;;;;;;;3.67;1.30;;;11.80;99.90;;;;;;4999180;28;20193;-79
2022/10/27 04:51:08;;;;;;;4.87;1.37;;;11.80;99.90;;;;;;4999418;28;20652;-79
2022/10/27 04:53:34;;;;;;;3.37;1.60;;;11.80;99.90;;;;;;4999286;28;20185;-78
2022/10/27 04:55:59;;;;;;;5.40;1.30;;;11.80;99.90;;;;;;4999813;28;20185;-78
2022/10/27 04:58:25;;;;;;;5.37;1.60;;;11.80;99.90;;;;;;4998661;28;20619;-79
2022/10/27 05:00:51;;;;;;;5.87;1.30;;;11.70;99.90;;;;;;4998747;28;20217;-79
2022/10/27 05:03:16;;;;;;;6.07;1.20;;;11.70;99.90;;;;;;4999560;28;20200;-80
2022/10/27 05:05:42;;;;;;;7.40;1.57;;;11.70;99.90;;;;;;4998941;28;20590;-79
2022/10/27 05:08:10;;;;;;;2.63;1.13;;;11.70;99.90;;;;;;4998595;28;20182;-79
2022/10/27 05:10:36;;;;;;;4.67;1.33;;;11.60;99.90;;;;;;4999302;28;20170;-79
2022/10/27 05:13:02;;;;;;;3.37;1.23;;;11.60;99.90;;;;;;5013497;28;20180;-79
2022/10/27 05:15:28;;;;;;;6.53;1.37;;;11.60;99.90;;;;;;5013917;28;20575;-79
2022/10/27 05:17:53;;;;;;;6.20;1.30;;;11.50;99.90;;;;;;4998729;28;20214;-79
2022/10/27 05:20:21;;;;;;;1.77;1.00;;;11.60;99.90;;;;;;4999247;28;20197;-79
2022/10/27 05:22:47;;;;;;;6.13;1.77;;;11.50;99.90;;;;;;4998696;28;20543;-79
2022/10/27 05:25:13;;;;;;;5.30;1.60;;;11.40;99.90;;;;;;5014001;28;20169;-79
2022/10/27 05:27:38;;;;;;;5.67;1.30;;;11.40;99.90;;;;;;4998101;28;20559;-80
2022/10/27 05:30:05;;;;;;;4.10;1.30;;;11.40;99.90;;;;;;4999017;28;20170;-80
2022/10/27 05:32:31;;;;;;;6.83;1.53;;;11.40;99.90;;;;;;4998492;28;20196;-80
2022/10/27 05:34:57;;;;;;;4.93;1.40;;;11.30;99.90;;;;;;4997593;28;20843;-79
2022/10/27 05:37:23;;;;;;;5.67;1.20;;;11.30;99.90;;;;;;4999162;28;20194;-79
2022/10/27 05:39:48;;;;;;;8.43;1.17;;;11.20;99.90;;;;;;4999291;28;20185;-79
2022/10/27 05:42:14;;;;;;;3.23;1.30;;;11.30;99.90;;;;;;4998633;28;20196;-80
2022/10/27 05:44:40;;;;;;;3.80;1.50;;;11.20;99.90;;;;;;4999134;28;20205;-79
2022/10/27 05:47:05;;;;;;;4.27;1.37;;;11.20;99.90;;;;;;4997171;28;20204;-78
2022/10/27 05:49:31;;;;;;;6.40;1.23;;;11.20;99.90;;;;;;4997250;28;20188;-79
2022/10/27 05:51:56;;;;;;;8.40;1.67;;;11.20;99.90;;;;;;4996964;28;20212;-79
2022/10/27 05:54:22;;;;;;;7.20;1.17;;;11.10;99.90;;;;;;4997654;28;20178;-78
2022/10/27 05:56:50;;;;;;;6.90;1.40;;;11.10;99.90;;;;;;4997120;28;20679;-79
2022/10/27 05:59:16;;;;;;;7.97;1.37;;;11.10;99.90;;;;;;4996182;28;20182;-78
2022/10/27 06:01:42;;;;;;;10.13;1.50;;;11.10;99.90;;;;;;4997291;28;20254;-79
2022/10/27 06:04:08;;;;;;;4.53;1.17;;;11.00;99.90;;;;;;5014536;28;20183;-77
2022/10/27 06:06:33;;;;;;;2.10;1.30;;;11.00;99.90;;;;;;5015474;28;20275;-79
2022/10/27 06:08:59;;;;;;;8.73;1.17;;;10.90;99.90;;;;;;5015294;28;20177;-77
2022/10/27 06:11:25;;;;;;;6.37;1.33;;;11.00;99.90;;;;;;5015108;28;20204;-78
2022/10/27 06:13:51;;;;;;;6.77;1.37;;;10.90;99.90;;;;;;5015192;28;20562;-79
2022/10/27 06:16:24;;;;;;;10.60;1.20;;;10.90;99.90;;;;;;5015188;28;20738;-79
2022/10/27 06:18:51;;;;;;;7.53;1.57;;;10.90;99.90;;;;;;5016066;28;20177;-79
2022/10/27 06:21:17;;;;;;;7.13;1.23;;;10.90;99.90;;;;;;5014886;28;20207;-79
2022/10/27 06:23:43;;;;;;;4.90;1.73;;;10.90;99.90;;;;;;5013973;28;20623;-78
2022/10/27 06:26:10;;;;;;;11.47;1.60;;;10.90;99.90;;;;;;5015111;28;20173;-79
2022/10/27 06:28:36;;;;;;;8.07;1.30;;;10.90;99.90;;;;;;5014729;28;20199;-79
2022/10/27 06:31:01;;;;;;;7.43;1.53;;;10.90;99.90;;;;;;5015324;28;20177;-79
2022/10/27 06:33:27;;;;;;;5.50;1.50;;;11.00;99.90;;;;;;5014774;28;20184;-79
2022/10/27 06:35:52;;;;;;;5.47;1.50;;;11.00;99.90;;;;;;5015357;28;20192;-79
2022/10/27 06:38:18;;;;;;;2.83;1.53;;;11.10;99.90;;;;;;5015474;28;20574;-77
2022/10/27 06:40:44;;;;;;;2.43;1.70;;;11.10;99.90;;;;;;5015386;28;20690;-79
2022/10/27 06:43:11;;;;;;;5.17;1.47;;;11.20;99.90;;;;;;5015619;28;20173;-79
2022/10/27 06:45:37;;;;;;;4.83;1.50;;;11.30;99.90;;;;;;5015910;28;20172;-79
2022/10/27 06:48:04;;;;;;;2.60;1.37;;;11.30;99.90;;;;;;5015519;28;20217;-80
2022/10/27 06:50:30;;;;;;;1.73;1.23;;;11.30;99.90;;;;;;5016030;28;20255;-79
2022/10/27 06:52:56;;;;;;;3.50;1.60;;;11.40;99.90;;;;;;5015433;28;20205;-79
2022/10/27 06:55:21;;;;;;;8.90;2.27;;;11.50;99.90;;;;;;5015717;28;20235;-79
2022/10/27 06:57:47;;;;;;;3.30;1.60;;;11.60;99.90;;;;;;5014287;28;20200;-79
2022/10/27 07:00:13;;;;;;;3.23;1.33;;;11.80;99.90;;;;;;5015566;28;20199;-79
2022/10/27 07:02:39;;;;;;;5.80;1.60;;;11.90;99.90;;;;;;5015190;28;20725;-77
2022/10/27 07:05:06;;;;;;;5.33;1.90;;;12.00;99.90;;;;;;5015533;28;20185;-80
2022/10/27 07:07:32;;;;;;;8.27;1.90;;;12.10;99.90;;;;;;5009064;28;20201;-80
2022/10/27 07:09:57;;;;;;;3.50;1.70;;;12.20;99.90;;;;;;5015527;28;20168;-80
2022/10/27 07:12:23;;;;;;;4.43;2.10;;;12.30;99.90;;;;;;5015127;28;20169;-80
2022/10/27 07:14:48;;;;;;;6.70;1.97;;;12.40;99.90;;;;;;5015656;28;20173;-80
2022/10/27 07:17:14;;;;;;;5.03;1.70;;;12.50;99.90;;;;;;5014503;28;20578;-80
2022/10/27 07:19:40;;;;;;;2.50;1.47;;;12.60;99.90;;;;;;5019114;28;20173;-80
2022/10/27 07:22:06;;;;;;;9.10;1.87;;;12.70;99.90;;;;;;5018020;28;20623;-80
2022/10/27 07:24:31;;;;;;;5.73;1.70;;;12.80;99.90;;;;;;5017660;28;20228;-81
2022/10/27 07:26:57;;;;;;;2.13;1.53;;;12.90;99.90;;;;;;5017970;28;20280;-78
2022/10/27 07:29:22;;;;;;;8.23;1.57;;;13.00;99.90;;;;;;5017762;28;20187;-81
2022/10/27 07:31:48;;;;;;;11.80;1.70;;;13.00;99.90;;;;;;5019772;28;20178;-80
2022/10/27 07:34:14;;;;;;;3.40;1.60;;;13.20;99.90;;;;;;5019296;28;20548;-80
2022/10/27 07:36:39;;;;;;;4.23;1.70;;;13.20;99.90;;;;;;5019081;28;20678;-80
2022/10/27 07:39:05;;;;;;;2.30;1.23;;;13.30;99.90;;;;;;5015238;28;20648;-81
2022/10/27 07:41:31;;;;;;;3.50;1.37;;;13.40;99.90;;;;;;4999241;28;20687;-81
2022/10/27 07:43:56;;;;;;;3.00;1.40;;;13.40;99.90;;;;;;4999260;28;20178;-80
2022/10/27 07:46:22;;;;;;;3.57;1.50;;;13.50;99.90;;;;;;4999435;28;20170;-81
2022/10/27 07:48:47;;;;;;;2.37;1.03;;;13.60;99.90;;;;;;4999672;28;20680;-81
2022/10/27 07:51:13;;;;;;;6.70;1.30;;;13.70;99.90;;;;;;4999510;28;20201;-81
2022/10/27 07:53:38;;;;;;;7.07;1.30;;;13.80;99.90;;;;;;4998962;28;20180;-81
2022/10/27 07:56:04;;;;;;;3.77;1.17;;;14.00;99.90;;;;;;4999531;28;20278;-81
2022/10/27 07:58:30;;;;;;;6.20;1.27;;;14.00;99.90;;;;;;4998952;28;20268;-81
2022/10/27 08:00:57;;;;;;;3.13;0.90;;;14.10;99.90;;;;;;4999282;28;20710;-81
2022/10/27 08:03:25;;;;;;;1.97;1.20;;;14.10;99.90;;;;;;4998974;28;20252;-81
2022/10/27 08:05:51;;;;;;;2.30;0.80;;;14.20;99.90;;;;;;4999273;28;20269;-81
2022/10/27 08:08:17;;;;;;;5.40;1.07;;;14.40;99.90;;;;;;4999522;28;20232;-81
2022/10/27 08:10:43;;;;;;;4.07;1.40;;;14.40;99.90;;;;;;4998636;28;20181;-80
2022/10/27 08:13:09;;;;;;;3.03;1.10;;;14.50;99.90;;;;;;4999276;28;20551;-81
2022/10/27 08:15:39;;;;;;;5.97;1.00;;;14.50;99.90;;;;;;4999241;28;20178;-81
2022/10/27 08:18:05;;;;;;;6.77;1.23;;;14.60;99.90;;;;;;4997920;28;20272;-81
2022/10/27 08:20:33;;;;;;;9.13;1.20;;;14.70;99.90;;;;;;4999056;28;20198;-81
2022/10/27 08:23:04;;;;;;;4.10;1.00;;;14.80;99.90;;;;;;4998617;28;20170;-81
2022/10/27 08:25:30;;;;;;;1.83;1.10;;;14.90;99.90;;;;;;4999327;28;20178;-80
2022/10/27 08:27:57;;;;;;;2.17;1.23;;;14.90;99.90;;;;;;4999771;28;20763;-82
2022/10/27 08:30:25;;;;;;;5.60;1.10;;;15.00;99.90;;;;;;4998698;28;20205;-81
2022/10/27 08:32:58;;;;;;;3.47;0.83;;;15.10;99.90;;;;;;4999726;28;20185;-81
2022/10/27 08:35:25;;;;;;;4.73;0.90;;;15.20;99.90;;;;;;4999379;28;20577;-81
2022/10/27 08:38:05;;;;;;;4.43;0.90;;;15.30;99.90;;;;;;4999258;28;20197;-81
2022/10/27 08:40:55;;;;;;;2.73;0.80;;;15.40;99.90;;;;;;4999087;28;20192;-81
2022/10/27 08:43:37;;;;;;;3.53;0.80;;;15.50;99.90;;;;;;4999592;28;20165;-81
2022/10/27 08:46:25;;;;;;;3.87;0.80;;;15.60;99.90;;;;;;4999771;28;20162;-81
2022/10/27 08:48:54;;;;;;;3.60;1.00;;;15.70;99.90;;;;;;4999763;28;20158;-81
2022/10/27 08:51:22;;;;;;;7.73;0.90;;;15.80;99.90;;;;;;4999647;28;20613;-79
2022/10/27 08:53:52;;;;;;;2.83;0.80;;;15.80;99.90;;;;;;5000322;28;20200;-81
2022/10/27 08:56:20;;;;;;;3.50;1.00;;;15.90;99.90;;;;;;5000450;28;20624;-81
2022/10/27 08:58:47;;;;;;;4.23;1.07;;;16.00;99.90;;;;;;4999839;28;20232;-82
2022/10/27 09:01:39;;;;;;;2.80;1.00;;;16.10;99.90;;;;;;5000352;28;20330;-81
2022/10/27 09:04:52;;;;;;;4.30;0.90;;;16.10;99.90;;;;;;5001068;28;20154;-82
2022/10/27 09:07:51;;;;;;;3.17;0.80;;;16.20;99.90;;;;;;4924668;29;20235;-82
2022/10/27 09:10:32;;;;;;;3.13;1.03;;;16.30;99.90;;;;;;4941128;29;20251;-82
2022/10/27 09:13:10;;;;;;;3.70;0.80;;;16.40;99.90;;;;;;4993162;28;20198;-82
2022/10/27 09:15:51;;;;;;;3.47;1.10;;;16.50;99.90;;;;;;5019186;28;20166;-80
2022/10/27 09:18:38;;;;;;;1.37;1.00;;;16.60;99.90;;;;;;5003411;28;20228;-81
2022/10/27 09:21:19;;;;;;;4.00;0.83;;;16.70;99.90;;;;;;4997925;28;20196;-80
2022/10/27 09:23:51;;;;;;;4.80;1.10;;;16.60;99.90;;;;;;4997694;28;20182;-80
2022/10/27 09:26:19;;;;;;;2.13;1.03;;;16.70;99.90;;;;;;4997547;28;20208;-81
2022/10/27 09:28:54;;;;;;;0.93;0.60;;;16.80;99.90;;;;;;4997910;28;20714;-81
2022/10/27 09:31:48;;;;;;;5.77;1.53;;;16.80;99.90;;;;;;4997770;28;20158;-79
2022/10/27 09:34:20;;;;;;;3.03;0.80;;;16.90;99.90;;;;;;4997928;28;20172;-81
2022/10/27 09:36:45;;;;;;;1.67;0.70;;;16.90;99.90;;;;;;4996318;28;20256;-82
2022/10/27 09:39:11;;;;;;;1.50;0.90;;;17.00;99.90;;;;;;4998639;28;20186;-81
2022/10/27 09:41:36;;;;;;;1.07;0.70;;;17.10;99.90;;;;;;4997685;28;20679;-81
2022/10/27 09:44:03;;;;;;;1.03;0.87;;;17.10;99.90;;;;;;4998188;28;20588;-81
2022/10/27 09:46:30;;;;;;;2.10;0.93;;;17.20;99.90;;;;;;4997965;28;20640;-82
2022/10/27 09:49:02;;;;;;;6.83;0.90;;;17.30;99.90;;;;;;4997783;28;20170;-81
2022/10/27 09:51:49;;;;;;;0.90;0.60;;;17.30;99.90;;;;;;4997962;28;20177;-82
2022/10/27 09:54:28;;;;;;;3.47;0.97;;;17.40;99.90;;;;;;4998932;28;20166;-81
2022/10/27 09:56:54;;;;;;;5.40;1.00;;;17.40;99.90;;;;;;4998401;28;20272;-81
2022/10/27 09:59:21;;;;;;;2.60;0.87;;;17.50;99.90;;;;;;4998099;28;20245;-80
2022/10/27 10:01:55;;;;;;;3.10;0.87;;;17.60;99.90;;;;;;4998455;28;20200;-81
2022/10/27 10:04:24;;;;;;;2.03;0.70;;;17.70;99.90;;;;;;4999230;28;20186;-81
2022/10/27 10:06:56;;;;;;;5.80;1.17;;;17.80;99.90;;;;;;4998107;28;20198;-82
2022/10/27 10:09:33;;;;;;;1.40;0.90;;;17.80;99.90;;;;;;4997800;28;20181;-81
2022/10/27 10:12:18;;;;;;;0.93;0.70;;;17.90;99.90;;;;;;4998904;28;20181;-82
2022/10/27 10:14:44;;;;;;;8.17;1.60;;;18.00;99.90;;;;;;4999007;28;20256;-81
2022/10/27 10:17:26;;;;;;;2.23;1.13;;;18.00;99.90;;;;;;4998206;28;20251;-81
2022/10/27 10:19:54;;;;;;;3.50;1.00;;;18.00;99.90;;;;;;5011902;28;20179;-82
2022/10/27 10:22:40;;;;;;;1.50;0.90;;;18.00;99.90;;;;;;5014847;28;20237;-81
2022/10/27 10:25:18;;;;;;;3.43;1.00;;;18.00;99.90;;;;;;5013515;28;20190;-80
2022/10/27 10:27:48;;;;;;;5.17;0.97;;;18.10;99.90;;;;;;5012784;28;20244;-80
2022/10/27 10:30:19;;;;;;;4.07;1.00;;;18.20;99.90;;;;;;5014756;28;20173;-80
2022/10/27 10:32:50;;;;;;;1.40;0.83;;;18.20;99.90;;;;;;5014247;28;20178;-81
2022/10/27 10:35:38;;;;;;;4.20;1.00;;;18.30;99.90;;;;;;5013519;28;20170;-81
2022/10/27 10:38:23;;;;;;;2.53;1.00;;;18.40;99.90;;;;;;5017518;28;20185;-80
2022/10/27 10:40:56;;;;;;;1.80;0.80;;;18.50;99.90;;;;;;5007057;28;20201;-82
2022/10/27 10:43:22;;;;;;;4.80;1.00;;;18.50;99.90;;;;;;4999159;28;20176;-82
2022/10/27 10:45:51;;;;;;;4.33;0.97;;;18.60;99.90;;;;;;4998696;28;20201;-81
2022/10/27 10:48:27;;;;;;;4.73;1.10;;;18.60;99.90;;;;;;4998478;28;20186;-81
2022/10/27 10:50:53;;;;;;;2.13;1.10;;;18.70;99.90;;;;;;4998423;28;20204;-81
2022/10/27 10:53:26;;;;;;;1.20;0.90;;;18.70;99.90;;;;;;4998221;28;20169;-81
2022/10/27 10:55:54;;;;;;;3.67;1.20;;;18.80;99.90;;;;;;4998753;28;20196;-82
2022/10/27 10:58:23;;;;;;;2.60;1.10;;;18.80;99.90;;;;;;4997116;28;20197;-81
2022/10/27 11:01:00;;;;;;;2.10;1.10;;;18.90;99.90;;;;;;4998083;28;20190;-81
2022/10/27 11:03:32;;;;;;;4.63;1.17;;;19.00;99.90;;;;;;4998252;28;20250;-81
2022/10/27 11:06:02;;;;;;;4.40;1.03;;;19.00;99.90;;;;;;4998155;28;20724;-82
2022/10/27 11:08:37;;;;;;;3.33;0.97;;;19.10;99.90;;;;;;4997952;28;20217;-81
2022/10/27 11:11:05;;;;;;;2.73;0.80;;;19.10;99.90;;;;;;4998509;28;20173;-82
2022/10/27 11:13:38;;;;;;;4.13;1.20;;;19.20;99.90;;;;;;4997498;28;20204;-80
2022/10/27 11:16:06;;;;;;;5.47;1.00;;;19.20;99.90;;;;;;4997633;28;20583;-81
2022/10/27 11:18:45;;;;;;;3.23;1.07;;;19.30;99.90;;;;;;4998204;28;20199;-81
2022/10/27 11:21:32;;;;;;;3.47;1.10;;;19.30;1.00;;;;;;4998187;28;20200;-81
2022/10/27 11:24:12;;;;;;;6.30;1.10;;;19.40;1.00;;;;;;4997742;28;20204;-81
2022/10/27 11:26:45;;;;;;;4.33;1.13;;;19.40;1.00;;;;;;4997513;28;20169;-81
2022/10/27 11:29:41;;;;;;;5.93;1.10;;;19.50;1.00;;;;;;4996960;28;20639;-81
2022/10/27 11:32:21;;;;;;;4.40;1.37;;;19.60;1.00;;;;;;4997818;28;20170;-81
2022/10/27 11:35:32;;;;;;;2.03;0.93;;;19.60;99.90;;;;;;4997479;28;20181;-81
2022/10/27 11:38:23;;;;;;;3.03;1.20;;;19.70;99.90;;;;;;4971096;28;20212;-81
2022/10/27 11:41:02;;;;;;;2.10;1.03;;;19.70;99.90;;;;;;4996910;28;20221;-82
2022/10/27 11:43:36;;;;;;;3.27;1.40;;;19.70;99.90;;;;;;4998140;28;20158;-82
2022/10/27 11:46:19;;;;;;;2.97;1.20;;;19.80;99.90;;;;;;4998816;28;20169;-82
2022/10/27 11:48:52;;;;;;;2.10;1.10;;;19.80;99.90;;;;;;4998709;28;20683;-81
2022/10/27 11:51:42;;;;;;;4.87;1.30;;;19.90;99.90;;;;;;4999680;28;20166;-82
2022/10/27 11:54:08;;;;;;;8.27;1.53;;;19.90;99.90;;;;;;4999608;28;20202;-82
2022/10/27 11:56:34;;;;;;;2.07;1.00;;;19.90;99.90;;;;;;5013813;28;20188;-80
2022/10/27 11:59:12;;;;;;;4.90;1.30;;;20.00;99.90;;;;;;5010458;28;20173;-79
2022/10/27 12:01:48;;;;;;;3.53;1.30;;;20.00;99.90;;;;;;5017243;28;20207;-81
2022/10/27 12:04:35;;;;;;;1.73;0.87;;;20.00;39.00;;;;;;5018579;28;20149;-81
2022/10/27 12:07:25;;;;;;;4.07;1.30;;;20.00;1.00;;;;;;5019925;28;20616;-80
2022/10/27 12:10:06;;;;;;;4.87;1.47;;;20.00;48.30;;;;;;5019554;28;20157;-80
2022/10/27 12:12:43;;;;;;;3.20;1.10;;;20.00;48.90;;;;;;5019707;28;20164;-80
2022/10/27 12:15:30;;;;;;;1.43;0.90;;;20.10;93.00;;;;;;5019251;28;20153;-80
2022/10/27 12:18:15;;;;;;;5.27;1.40;;;20.10;99.90;;;;;;5019158;28;20197;-80
2022/10/27 12:20:51;;;;;;;3.93;1.33;;;20.20;99.90;;;;;;5019734;28;20188;-79
2022/10/27 12:23:26;;;;;;;6.33;1.50;;;20.10;99.90;;;;;;5019624;28;20160;-80
2022/10/27 12:26:09;;;;;;;2.60;1.27;;;20.10;99.90;;;;;;5019936;28;20623;-81
2022/10/27 12:28:36;;;;;;;10.17;1.40;;;20.10;71.50;;;;;;5017344;28;20201;-80
2022/10/27 12:31:06;;;;;;;6.40;1.63;;;20.20;41.00;;;;;;5019286;28;20204;-80
2022/10/27 12:33:51;;;;;;;3.17;0.93;;;20.20;94.70;;;;;;5018526;28;20519;-80
2022/10/27 12:36:29;;;;;;;3.97;1.20;;;20.20;99.90;;;;;;5017538;28;20173;-80
2022/10/27 12:39:13;;;;;;;3.00;1.17;;;20.30;27.60;;;;;;5018534;28;20311;-80
2022/10/27 12:41:45;;;;;;;5.73;1.27;;;20.30;18.20;;;;;;5018598;28;20192;-78
2022/10/27 12:44:22;;;;;;;2.30;1.50;;;20.40;1.00;;;;;;5018349;28;20158;-80
2022/10/27 12:47:16;;;;;;;2.93;1.43;;;20.40;1.00;;;;;;5018833;28;20271;-80
2022/10/27 12:50:10;;;;;;;6.93;1.40;;;20.40;1.00;;;;;;5018625;28;20647;-80
2022/10/27 12:52:53;;;;;;;5.13;1.53;;;20.40;1.00;;;;;;5018472;28;20169;-80
2022/10/27 12:55:46;;;;;;;5.00;1.53;;;20.40;1.00;;;;;;5018625;28;20161;-80
2022/10/27 12:58:30;;;;;;;2.77;1.37;;;20.40;1.00;;;;;;5019351;28;20193;-80
2022/10/27 13:01:09;;;;;;;5.83;1.30;;;20.30;1.00;;;;;;5018519;28;20246;-80
2022/10/27 13:04:21;;;;;;;3.27;1.30;;;20.30;1.00;;;;;;5018659;28;20164;-80
2022/10/27 13:07:16;;;;;;;4.87;1.33;;;20.20;1.00;;;;;;5008353;28;20681;-80
2022/10/27 13:10:07;;;;;;;5.00;1.40;;;20.20;1.00;;;;;;5017916;28;20165;-80